createdAt,value
2023-04-16T00:00:14.974Z,63.40
2023-04-16T00:02:42.938Z,63.50
2023-04-16T00:05:10.931Z,63.50
2023-04-16T00:07:39.366Z,63.50
2023-04-16T00:10:08.613Z,63.60
2023-04-16T00:12:36.749Z,63.50
2023-04-16T00:15:05.030Z,63.10
2023-04-16T00:17:36.312Z,63.00
2023-04-16T00:20:04.545Z,62.90
2023-04-16T00:22:32.438Z,63.00
2023-04-16T00:25:00.344Z,63.00
2023-04-16T00:27:28.256Z,63.00
2023-04-16T00:29:56.180Z,63.00
2023-04-16T00:32:24.463Z,63.20
2023-04-16T00:34:53.731Z,63.30
2023-04-16T00:37:21.749Z,63.40
2023-04-16T00:39:49.650Z,63.40
2023-04-16T00:42:17.529Z,63.30
2023-04-16T00:44:45.427Z,63.30
2023-04-16T00:47:13.308Z,63.30
2023-04-16T00:49:41.774Z,63.40
2023-04-16T00:52:11.961Z,63.50
2023-04-16T00:54:40.050Z,63.50
2023-04-16T00:57:08.066Z,63.40
2023-04-16T00:59:36.003Z,63.10
2023-04-16T01:02:04.041Z,62.80
2023-04-16T01:04:33.864Z,62.80
2023-04-16T01:07:01.853Z,62.70
2023-04-16T01:09:31.206Z,63.00
2023-04-16T01:11:59.107Z,62.90
2023-04-16T01:14:27.028Z,63.00
2023-04-16T01:16:54.996Z,63.00
2023-04-16T01:19:22.888Z,63.10
2023-04-16T01:21:54.367Z,63.30
2023-04-16T01:24:22.289Z,63.30
2023-04-16T01:26:50.280Z,63.20
2023-04-16T01:29:18.229Z,63.30
2023-04-16T01:31:47.149Z,63.30
2023-04-16T01:34:23.370Z,63.40
2023-04-16T01:36:54.161Z,64.10
2023-04-16T01:39:23.527Z,63.40
2023-04-16T01:41:51.410Z,63.20
2023-04-16T01:44:23.121Z,63.30
2023-04-16T01:46:51.039Z,63.30
2023-04-16T01:49:18.988Z,63.50
2023-04-16T01:51:46.935Z,63.50
2023-04-16T01:54:15.670Z,63.30
2023-04-16T01:56:44.964Z,63.20
2023-04-16T01:59:13.282Z,62.80
2023-04-16T02:01:43.297Z,62.60
2023-04-16T02:04:11.221Z,62.50
2023-04-16T02:06:39.963Z,62.60
2023-04-16T02:09:08.194Z,62.80
2023-04-16T02:11:38.581Z,62.60
2023-04-16T02:14:08.635Z,62.80
2023-04-16T02:16:37.324Z,62.80
2023-04-16T02:19:12.671Z,63.00
2023-04-16T02:21:42.656Z,63.10
2023-04-16T02:24:10.615Z,63.10
2023-04-16T02:26:38.595Z,63.20
2023-04-16T02:29:14.864Z,63.20
2023-04-16T02:31:47.498Z,63.30
2023-04-16T02:34:15.936Z,63.30
2023-04-16T02:36:43.841Z,63.20
2023-04-16T02:39:11.834Z,63.10
2023-04-16T02:41:41.512Z,63.20
2023-04-16T02:44:09.425Z,63.20
2023-04-16T02:46:38.661Z,63.30
2023-04-16T02:49:06.824Z,63.40
2023-04-16T02:51:34.805Z,63.30
2023-04-16T02:54:03.050Z,63.10
2023-04-16T02:56:31.678Z,62.80
2023-04-16T02:58:59.654Z,62.60
2023-04-16T03:01:28.468Z,62.40
2023-04-16T03:03:57.924Z,62.30
2023-04-16T03:06:26.192Z,62.60
2023-04-16T03:08:54.084Z,62.50
2023-04-16T03:11:22.046Z,62.50
2023-04-16T03:13:50.013Z,62.70
2023-04-16T03:16:18.110Z,62.70
2023-04-16T03:18:46.097Z,62.90
2023-04-16T03:21:15.414Z,63.10
2023-04-16T03:23:43.332Z,63.10
2023-04-16T03:26:11.267Z,62.90
2023-04-16T03:28:39.276Z,63.00
2023-04-16T03:31:07.286Z,63.20
2023-04-16T03:33:37.028Z,63.30
2023-04-16T03:36:06.427Z,63.20
2023-04-16T03:38:35.880Z,63.00
2023-04-16T03:41:03.935Z,63.00
2023-04-16T03:43:34.204Z,63.30
2023-04-16T03:46:02.182Z,63.40
2023-04-16T03:48:30.371Z,63.30
2023-04-16T03:50:59.391Z,63.20
2023-04-16T03:53:29.646Z,62.90
2023-04-16T03:55:59.226Z,62.70
2023-04-16T03:58:28.606Z,62.40
2023-04-16T04:00:57.394Z,62.20
2023-04-16T04:03:26.729Z,62.40
2023-04-16T04:05:56.126Z,62.30
2023-04-16T04:08:28.467Z,62.30
2023-04-16T04:10:57.772Z,62.60
2023-04-16T04:13:26.630Z,62.80
2023-04-16T04:15:55.197Z,62.80
2023-04-16T04:18:24.328Z,62.80
2023-04-16T04:20:52.966Z,62.60
2023-04-16T04:23:24.488Z,62.70
2023-04-16T04:25:52.712Z,62.90
2023-04-16T04:28:22.121Z,63.10
2023-04-16T04:30:50.044Z,63.10
2023-04-16T04:33:17.974Z,62.90
2023-04-16T04:35:46.380Z,62.80
2023-04-16T04:38:19.643Z,62.60
2023-04-16T04:40:47.729Z,62.40
2023-04-16T04:43:16.560Z,62.50
2023-04-16T04:45:47.376Z,62.70
2023-04-16T04:48:15.385Z,62.60
2023-04-16T04:50:43.484Z,63.20
2023-04-16T04:53:11.443Z,62.40
2023-04-16T04:55:39.642Z,62.60
2023-04-16T04:58:07.731Z,62.90
2023-04-16T05:00:37.471Z,63.00
2023-04-16T05:03:11.194Z,62.70
2023-04-16T05:05:39.271Z,62.70
2023-04-16T05:08:07.235Z,62.60
2023-04-16T05:10:35.397Z,62.20
2023-04-16T05:13:03.341Z,62.10
2023-04-16T05:15:31.217Z,62.40
2023-04-16T05:17:59.168Z,62.40
2023-04-16T05:20:28.619Z,62.40
2023-04-16T05:22:56.491Z,62.40
2023-04-16T05:25:24.567Z,62.50
2023-04-16T05:27:52.517Z,62.70
2023-04-16T05:30:20.650Z,62.90
2023-04-16T05:32:48.636Z,62.80
2023-04-16T05:35:22.631Z,62.60
2023-04-16T05:37:51.886Z,62.60
2023-04-16T05:40:19.911Z,62.90
2023-04-16T05:42:47.813Z,62.90
2023-04-16T05:45:15.745Z,62.90
2023-04-16T05:47:43.786Z,62.90
2023-04-16T05:50:12.310Z,62.70
2023-04-16T05:52:40.262Z,62.40
2023-04-16T05:55:10.435Z,62.30
2023-04-16T05:57:38.330Z,62.30
2023-04-16T06:00:07.842Z,62.50
2023-04-16T06:02:41.879Z,62.50
2023-04-16T06:05:10.192Z,62.40
2023-04-16T06:07:38.146Z,62.50
2023-04-16T06:10:06.878Z,62.70
2023-04-16T06:12:36.167Z,62.90
2023-04-16T06:15:04.282Z,62.90
2023-04-16T06:17:33.416Z,62.70
2023-04-16T06:20:07.802Z,62.60
2023-04-16T06:22:35.902Z,62.70
2023-04-16T06:25:04.037Z,62.90
2023-04-16T06:27:32.277Z,63.70
2023-04-16T06:30:04.532Z,62.90
2023-04-16T06:32:32.414Z,62.90
2023-04-16T06:35:00.315Z,62.70
2023-04-16T06:37:28.292Z,62.30
2023-04-16T06:39:56.204Z,62.00
2023-04-16T06:42:24.155Z,62.00
2023-04-16T06:44:52.020Z,62.20
2023-04-16T06:47:21.401Z,62.30
2023-04-16T06:49:49.321Z,62.20
2023-04-16T06:52:17.217Z,62.20
2023-04-16T06:54:45.104Z,62.50
2023-04-16T06:57:12.970Z,62.60
2023-04-16T06:59:40.864Z,62.80
2023-04-16T07:02:09.812Z,62.50
2023-04-16T07:04:39.163Z,62.50
2023-04-16T07:07:07.108Z,62.60
2023-04-16T07:09:34.982Z,62.80
2023-04-16T07:12:02.832Z,62.90
2023-04-16T07:14:30.741Z,62.90
2023-04-16T07:16:58.710Z,62.80
2023-04-16T07:19:30.456Z,62.70
2023-04-16T07:21:59.759Z,62.30
2023-04-16T07:24:27.689Z,62.20
2023-04-16T07:26:55.622Z,62.10
2023-04-16T07:29:23.826Z,62.20
2023-04-16T07:31:51.796Z,62.20
2023-04-16T07:34:19.745Z,62.10
2023-04-16T07:36:47.738Z,62.30
2023-04-16T07:39:20.265Z,62.50
2023-04-16T07:41:50.959Z,62.60
2023-04-16T07:44:18.887Z,62.60
2023-04-16T07:46:47.676Z,62.60
2023-04-16T07:49:15.939Z,62.50
2023-04-16T07:51:43.847Z,62.70
2023-04-16T07:54:11.833Z,62.80
2023-04-16T07:56:41.233Z,62.90
2023-04-16T07:59:22.185Z,62.70
2023-04-16T08:01:53.383Z,62.50
2023-04-16T08:04:25.938Z,62.60
2023-04-16T08:06:54.578Z,62.80
2023-04-16T08:09:23.875Z,62.90
2023-04-16T08:11:53.128Z,62.80
2023-04-16T08:14:23.857Z,62.80
2023-04-16T08:16:52.142Z,62.50
2023-04-16T08:19:20.107Z,62.30
2023-04-16T08:21:48.276Z,62.00
2023-04-16T08:24:16.627Z,61.60
2023-04-16T08:26:44.567Z,61.90
2023-04-16T08:29:13.870Z,62.00
2023-04-16T08:31:42.068Z,62.00
2023-04-16T08:34:11.345Z,62.00
2023-04-16T08:36:39.366Z,62.40
2023-04-16T08:39:07.787Z,62.50
2023-04-16T08:41:36.248Z,62.60
2023-04-16T08:44:07.178Z,62.50
2023-04-16T08:46:39.609Z,62.50
2023-04-16T08:49:08.368Z,62.70
2023-04-16T08:51:36.638Z,62.80
2023-04-16T08:54:05.195Z,62.90
2023-04-16T08:56:33.186Z,63.00
2023-04-16T08:59:05.083Z,62.90
2023-04-16T09:01:33.706Z,62.80
2023-04-16T09:04:04.025Z,62.50
2023-04-16T09:06:32.239Z,62.30
2023-04-16T09:09:00.338Z,62.50
2023-04-16T09:11:28.323Z,62.50
2023-04-16T09:13:56.432Z,62.50
2023-04-16T09:16:24.429Z,62.50
2023-04-16T09:18:55.478Z,62.70
2023-04-16T09:21:24.784Z,63.00
2023-04-16T09:23:54.236Z,62.90
2023-04-16T09:26:22.628Z,63.00
2023-04-16T09:28:50.835Z,63.00
2023-04-16T09:31:19.855Z,62.90
2023-04-16T09:34:02.490Z,63.10
2023-04-16T09:36:32.366Z,63.10
2023-04-16T09:39:00.698Z,63.20
2023-04-16T09:41:29.575Z,63.10
2023-04-16T09:43:58.099Z,63.20
2023-04-16T09:46:26.822Z,63.00
2023-04-16T09:48:54.847Z,62.60
2023-04-16T09:51:22.709Z,62.40
2023-04-16T09:53:54.837Z,62.40
2023-04-16T09:56:25.792Z,62.70
2023-04-16T09:58:58.167Z,62.90
2023-04-16T10:01:29.084Z,63.10
2023-04-16T10:03:57.206Z,63.10
2023-04-16T10:06:27.144Z,63.30
2023-04-16T10:08:57.304Z,63.30
2023-04-16T10:11:25.636Z,63.30
2023-04-16T10:13:53.652Z,63.30
2023-04-16T10:16:21.566Z,63.30
2023-04-16T10:18:49.547Z,63.20
2023-04-16T10:21:17.554Z,62.80
2023-04-16T10:23:46.311Z,62.50
2023-04-16T10:26:18.834Z,62.20
2023-04-16T10:28:46.817Z,61.40
2023-04-16T10:31:14.839Z,61.10
2023-04-16T10:33:42.886Z,61.60
2023-04-16T10:36:11.770Z,60.50
2023-04-16T10:38:40.261Z,60.30
2023-04-16T10:41:08.589Z,59.90
2023-04-16T10:43:45.305Z,59.80
2023-04-16T10:46:20.822Z,59.80
2023-04-16T10:48:50.209Z,60.00
2023-04-16T10:51:26.163Z,60.30
2023-04-16T10:53:55.472Z,61.00
2023-04-16T10:56:27.192Z,61.40
2023-04-16T10:58:57.286Z,61.40
2023-04-16T11:01:31.290Z,61.60
2023-04-16T11:04:01.822Z,61.80
2023-04-16T11:06:31.945Z,62.20
2023-04-16T11:08:59.981Z,62.50
2023-04-16T11:11:27.952Z,62.50
2023-04-16T11:13:57.982Z,62.50
2023-04-16T11:16:26.941Z,62.60
2023-04-16T11:18:56.995Z,62.80
2023-04-16T11:21:25.533Z,63.00
2023-04-16T11:23:54.012Z,63.00
2023-04-16T11:26:27.340Z,62.90
2023-04-16T11:28:57.119Z,62.60
2023-04-16T11:31:27.068Z,62.30
2023-04-16T11:33:57.086Z,62.40
2023-04-16T11:36:27.465Z,62.70
2023-04-16T11:39:02.404Z,62.70
2023-04-16T11:41:30.388Z,62.50
2023-04-16T11:43:59.711Z,62.60
2023-04-16T11:46:38.999Z,62.90
2023-04-16T11:49:06.928Z,63.10
2023-04-16T11:51:34.921Z,63.10
2023-04-16T11:54:02.814Z,63.00
2023-04-16T11:56:31.467Z,63.10
2023-04-16T11:59:13.539Z,63.30
2023-04-16T12:01:45.519Z,63.40
2023-04-16T12:04:14.544Z,63.30
2023-04-16T12:06:42.824Z,63.20
2023-04-16T12:09:27.109Z,63.40
2023-04-16T12:11:55.073Z,63.50
2023-04-16T12:14:26.964Z,63.50
2023-04-16T12:16:54.940Z,63.70
2023-04-16T12:19:22.924Z,63.70
2023-04-16T12:21:51.203Z,63.50
2023-04-16T12:24:22.521Z,63.20
2023-04-16T12:26:55.906Z,62.90
2023-04-16T12:29:25.846Z,62.90
2023-04-16T12:31:54.107Z,63.20
2023-04-16T12:34:22.400Z,63.10
2023-04-16T12:37:07.431Z,63.00
2023-04-16T12:39:35.314Z,63.20
2023-04-16T12:42:03.740Z,63.20
2023-04-16T12:44:33.129Z,63.30
2023-04-16T12:47:01.068Z,63.50
2023-04-16T12:49:30.964Z,64.20
2023-04-16T12:51:58.880Z,63.50
2023-04-16T12:54:28.898Z,63.50
2023-04-16T12:56:56.807Z,63.60
2023-04-16T12:59:24.881Z,63.90
2023-04-16T13:01:54.200Z,63.80
2023-04-16T13:04:25.023Z,63.90
2023-04-16T13:06:53.697Z,63.90
2023-04-16T13:09:21.608Z,64.00
2023-04-16T13:11:49.569Z,64.00
2023-04-16T13:14:17.476Z,64.30
2023-04-16T13:16:45.498Z,64.30
2023-04-16T13:19:15.883Z,64.10
2023-04-16T13:21:45.833Z,63.80
2023-04-16T13:24:13.773Z,63.70
2023-04-16T13:26:42.912Z,63.80
2023-04-16T13:29:11.080Z,64.10
2023-04-16T13:31:40.938Z,64.10
2023-04-16T13:34:08.861Z,64.10
2023-04-16T13:36:38.185Z,64.10
2023-04-16T13:39:10.777Z,64.30
2023-04-16T13:41:38.925Z,64.40
2023-04-16T13:44:06.952Z,64.60
2023-04-16T13:46:34.942Z,64.50
2023-04-16T13:49:02.894Z,64.60
2023-04-16T13:51:30.797Z,64.60
2023-04-16T13:54:00.061Z,64.60
2023-04-16T13:56:27.945Z,64.80
2023-04-16T13:58:56.124Z,64.80
2023-04-16T14:01:24.161Z,64.90
2023-04-16T14:03:54.220Z,64.90
2023-04-16T14:06:22.179Z,65.00
2023-04-16T14:08:50.115Z,65.10
2023-04-16T14:11:19.420Z,65.20
2023-04-16T14:13:47.429Z,65.00
2023-04-16T14:16:15.654Z,64.70
2023-04-16T14:18:43.631Z,64.30
2023-04-16T14:21:11.546Z,64.10
2023-04-16T14:23:39.463Z,64.80
2023-04-16T14:26:09.984Z,64.30
2023-04-16T14:28:42.270Z,64.30
2023-04-16T14:31:12.173Z,64.10
2023-04-16T14:33:40.254Z,64.30
2023-04-16T14:36:08.359Z,64.50
2023-04-16T14:38:36.306Z,64.60
2023-04-16T14:41:04.251Z,64.90
2023-04-16T14:43:32.166Z,64.80
2023-04-16T14:46:02.110Z,64.90
2023-04-16T14:48:30.089Z,64.80
2023-04-16T14:50:58.093Z,65.00
2023-04-16T14:53:26.061Z,65.00
2023-04-16T14:55:54.140Z,65.10
2023-04-16T14:58:23.519Z,65.00
2023-04-16T15:00:51.522Z,65.00
2023-04-16T15:03:20.980Z,64.90
2023-04-16T15:05:50.820Z,65.00
2023-04-16T15:08:18.813Z,65.20
2023-04-16T15:10:46.727Z,65.20
2023-04-16T15:13:14.688Z,65.00
2023-04-16T15:15:42.645Z,64.60
2023-04-16T15:18:10.579Z,64.40
2023-04-16T15:20:39.955Z,64.30
2023-04-16T15:23:07.919Z,64.60
2023-04-16T15:25:36.307Z,64.50
2023-04-16T15:28:04.350Z,64.50
2023-04-16T15:30:32.447Z,64.70
2023-04-16T15:33:00.396Z,64.80
2023-04-16T15:35:28.371Z,64.90
2023-04-16T15:38:00.378Z,65.00
2023-04-16T15:40:28.407Z,64.90
2023-04-16T15:42:56.582Z,64.90
2023-04-16T15:45:24.779Z,64.90
2023-04-16T15:47:54.926Z,65.00
2023-04-16T15:50:22.873Z,65.20
2023-04-16T15:52:50.962Z,65.20
2023-04-16T15:55:20.952Z,65.10
2023-04-16T15:57:49.037Z,65.10
2023-04-16T16:00:17.346Z,65.20
2023-04-16T16:02:46.238Z,65.30
2023-04-16T16:05:14.574Z,65.40
2023-04-16T16:07:42.545Z,65.50
2023-04-16T16:10:11.190Z,65.30
2023-04-16T16:12:40.581Z,64.70
2023-04-16T16:15:10.901Z,64.50
2023-04-16T16:17:39.069Z,63.80
2023-04-16T16:20:10.290Z,64.20
2023-04-16T16:22:39.032Z,64.60
2023-04-16T16:25:07.778Z,64.50
2023-04-16T16:27:36.135Z,64.50
2023-04-16T16:30:07.348Z,64.70
2023-04-16T16:32:35.382Z,64.80
2023-04-16T16:35:03.330Z,65.10
2023-04-16T16:37:33.062Z,65.10
2023-04-16T16:40:03.940Z,64.90
2023-04-16T16:42:31.913Z,65.00
2023-04-16T16:44:59.817Z,65.10
2023-04-16T16:47:29.129Z,65.20
2023-04-16T16:49:57.114Z,65.40
2023-04-16T16:52:25.076Z,65.30
2023-04-16T16:54:53.969Z,65.30
2023-04-16T16:57:21.948Z,65.20
2023-04-16T16:59:50.387Z,65.30
2023-04-16T17:02:18.428Z,65.30
2023-04-16T17:04:47.704Z,65.50
2023-04-16T17:07:15.700Z,65.40
2023-04-16T17:09:43.574Z,65.10
2023-04-16T17:12:11.579Z,64.70
2023-04-16T17:14:39.550Z,64.50
2023-04-16T17:17:10.388Z,64.40
2023-04-16T17:19:38.323Z,64.70
2023-04-16T17:22:08.451Z,64.60
2023-04-16T17:24:36.426Z,64.70
2023-04-16T17:27:04.587Z,64.50
2023-04-16T17:29:33.721Z,64.60
2023-04-16T17:32:04.525Z,64.80
2023-04-16T17:34:32.654Z,65.00
2023-04-16T17:37:00.574Z,65.00
2023-04-16T17:39:31.376Z,64.90
2023-04-16T17:42:01.238Z,64.90
2023-04-16T17:44:29.158Z,65.00
2023-04-16T17:46:57.090Z,65.20
2023-04-16T17:49:25.260Z,65.20
2023-04-16T17:51:54.341Z,65.10
2023-04-16T17:54:22.269Z,65.10
2023-04-16T17:56:51.564Z,65.10
2023-04-16T17:59:19.483Z,65.20
2023-04-16T18:01:49.504Z,65.30
2023-04-16T18:04:18.149Z,65.40
2023-04-16T18:06:46.554Z,65.20
2023-04-16T18:09:14.680Z,64.80
2023-04-16T18:11:42.628Z,64.60
2023-04-16T18:14:13.980Z,64.50
2023-04-16T18:16:42.013Z,64.70
2023-04-16T18:19:09.948Z,64.80
2023-04-16T18:21:39.116Z,64.60
2023-04-16T18:24:07.712Z,64.70
2023-04-16T18:26:36.172Z,64.80
2023-04-16T18:29:04.674Z,65.00
2023-04-16T18:31:34.132Z,66.00
2023-04-16T18:34:03.863Z,65.10
2023-04-16T18:36:32.634Z,65.10
2023-04-16T18:39:02.497Z,65.20
2023-04-16T18:41:33.688Z,65.20
2023-04-16T18:44:01.654Z,65.30
2023-04-16T18:46:29.633Z,65.50
2023-04-16T18:48:59.938Z,65.30
2023-04-16T18:51:28.198Z,65.40
2023-04-16T18:53:56.092Z,65.40
2023-04-16T18:56:24.067Z,65.30
2023-04-16T18:58:52.130Z,65.60
2023-04-16T19:01:20.139Z,65.50
2023-04-16T19:03:48.150Z,65.30
2023-04-16T19:06:17.434Z,64.90
2023-04-16T19:08:47.972Z,64.70
2023-04-16T19:11:16.014Z,64.60
2023-04-16T19:13:43.943Z,64.70
2023-04-16T19:16:12.267Z,64.80
2023-04-16T19:18:40.305Z,64.80
2023-04-16T19:21:10.448Z,64.80
2023-04-16T19:23:39.911Z,65.00
2023-04-16T19:26:07.869Z,65.10
2023-04-16T19:28:35.857Z,65.30
2023-04-16T19:31:03.867Z,65.10
2023-04-16T19:33:31.810Z,65.10
2023-04-16T19:36:00.214Z,65.20
2023-04-16T19:38:28.195Z,65.30
2023-04-16T19:40:57.526Z,65.30
2023-04-16T19:43:25.533Z,65.50
2023-04-16T19:45:54.568Z,65.30
2023-04-16T19:48:22.513Z,65.20
2023-04-16T19:50:50.446Z,65.30
2023-04-16T19:53:18.393Z,65.30
2023-04-16T19:55:46.282Z,65.60
2023-04-16T19:58:15.552Z,65.50
2023-04-16T20:00:47.205Z,65.30
2023-04-16T20:03:17.588Z,65.00
2023-04-16T20:05:48.418Z,64.70
2023-04-16T20:08:16.396Z,64.60
2023-04-16T20:10:46.482Z,64.90
2023-04-16T20:13:17.978Z,64.80
2023-04-16T20:15:47.133Z,64.70
2023-04-16T20:18:15.341Z,64.70
2023-04-16T20:20:43.275Z,64.80
2023-04-16T20:23:11.191Z,65.00
2023-04-16T20:25:42.393Z,65.20
2023-04-16T20:28:10.389Z,65.20
2023-04-16T20:30:39.771Z,65.00
2023-04-16T20:33:07.910Z,65.10
2023-04-16T20:35:38.535Z,65.10
2023-04-16T20:38:06.455Z,65.20
2023-04-16T20:40:38.051Z,65.40
2023-04-16T20:43:12.250Z,65.20
2023-04-16T20:45:41.526Z,65.10
2023-04-16T20:48:09.732Z,65.20
2023-04-16T20:50:37.810Z,65.30
2023-04-16T20:53:05.725Z,65.50
2023-04-16T20:55:33.610Z,65.60
2023-04-16T20:58:01.572Z,65.30
2023-04-16T21:00:31.345Z,65.00
2023-04-16T21:03:03.121Z,64.70
2023-04-16T21:05:31.084Z,64.50
2023-04-16T21:08:00.966Z,64.60
2023-04-16T21:10:28.910Z,64.90
2023-04-16T21:12:56.864Z,64.70
2023-04-16T21:15:24.763Z,64.70
2023-04-16T21:17:52.793Z,64.80
2023-04-16T21:20:22.233Z,64.90
2023-04-16T21:22:53.317Z,65.10
2023-04-16T21:25:21.244Z,65.10
2023-04-16T21:27:49.272Z,65.00
2023-04-16T21:30:17.425Z,65.00
2023-04-16T21:32:45.580Z,65.10
2023-04-16T21:35:13.514Z,65.20
2023-04-16T21:37:42.792Z,65.50
2023-04-16T21:40:11.276Z,65.40
2023-04-16T21:42:40.000Z,65.10
2023-04-16T21:45:09.236Z,64.80
2023-04-16T21:47:37.466Z,64.50
2023-04-16T21:50:05.991Z,64.50
2023-04-16T21:52:33.962Z,64.80
2023-04-16T21:55:10.762Z,64.70
2023-04-16T21:57:38.692Z,64.70
2023-04-16T22:00:13.483Z,64.70
2023-04-16T22:02:42.729Z,64.80
2023-04-16T22:05:11.314Z,65.10
2023-04-16T22:07:39.336Z,65.20
2023-04-16T22:10:10.050Z,65.10
2023-04-16T22:12:39.766Z,65.10
2023-04-16T22:15:09.030Z,65.10
2023-04-16T22:17:37.059Z,65.20
2023-04-16T22:20:08.474Z,65.50
2023-04-16T22:22:39.136Z,65.40
2023-04-16T22:25:09.339Z,65.20
2023-04-16T22:27:37.298Z,65.20
2023-04-16T22:30:06.240Z,65.30
2023-04-16T22:32:34.311Z,65.40
2023-04-16T22:35:03.212Z,65.50
2023-04-16T22:37:31.409Z,65.40
2023-04-16T22:39:59.406Z,65.10
2023-04-16T22:42:28.693Z,64.80
2023-04-16T22:44:57.019Z,64.60
2023-04-16T22:47:24.997Z,64.60
2023-04-16T22:49:55.828Z,65.00
2023-04-16T22:52:23.792Z,64.90
2023-04-16T22:54:51.697Z,64.70
2023-04-16T22:57:21.142Z,64.80
2023-04-16T22:59:50.666Z,64.90
2023-04-16T23:02:18.645Z,65.10
2023-04-16T23:04:47.625Z,65.30
2023-04-16T23:07:15.691Z,65.10
2023-04-16T23:09:43.655Z,65.10
2023-04-16T23:12:11.592Z,65.10
2023-04-16T23:14:39.518Z,65.20
2023-04-16T23:17:08.784Z,65.50
2023-04-16T23:19:36.660Z,65.50
2023-04-16T23:22:04.803Z,65.30
2023-04-16T23:24:33.922Z,65.00
2023-04-16T23:27:02.704Z,64.70
2023-04-16T23:29:30.632Z,64.60
2023-04-16T23:32:00.173Z,64.80
2023-04-16T23:34:29.434Z,64.90
2023-04-16T23:36:57.306Z,64.80
2023-04-16T23:39:25.324Z,64.70
2023-04-16T23:41:53.360Z,64.80
2023-04-16T23:44:21.227Z,65.00
2023-04-16T23:46:49.177Z,65.30
2023-04-16T23:49:17.138Z,65.20
2023-04-16T23:51:47.523Z,65.10
2023-04-16T23:54:15.583Z,65.10
2023-04-16T23:56:43.491Z,65.20
2023-04-16T23:59:11.549Z,65.40
